aviador You're here:

KSHM Decoded Metar

in
Report Time2017-04-25 05:58:00
UTC Time2017-04-25 06:38:01
Flight Rules vfr VFR
Wind330° at 10 kt
W.Rank330° ranks 4
Current wind is above 330° avg. (8.1)
Visibility9999 m
Phenomena:N/A
Clouds:Few 110 Hf
Broken 210 Hf
Expected CloudBase > 2,800 ft AGL from Temp-Dew spread
Ceiling21,000 ft
Temp09°C
Dew Point02°C (62% RH)
AAT3.7°C
QNH1001 hPa
Raw Report
KSHM 250558Z AUTO 33010KT 10SM FEW110 BKN210 09/02 A2955 RMK AO2
LTG DSNT N SLP951 T00940020 10171 20092 58012 $=

Extra information for KSHM:More info

Social comments